EW1714 Weather Reports


Display with metric or nautical units.
time (UTC)temp
F
wind
direction
speed
MPH
gust
MPH
rain 1hr
in
rain 24hr
in
rain mn
in
humidity
%
barometer
mb
20190916201622 73 13 1.0 10.0 0.00 0.00 0.00 46 1015.5
20190916200045 75 16 3.0 11.0 0.00 0.00 0.00 45 1015.5
20190916194612 75 5 3.0 8.0 0.00 0.00 0.00 44 1015.6
20190916193022 75 46 2.0 9.0 0.00 0.00 0.00 46 1015.8
20190916191516 76 5 4.0 9.0 0.00 0.00 0.00 44 1015.6
20190916190028 76 15 2.0 11.0 0.00 0.00 0.00 44 1015.7
20190916184530 74 360 1.0 11.0 0.00 0.00 0.00 46 1015.6
20190916183044 75 44 3.0 12.0 0.00 0.00 0.00 45 1015.8
20190916181520 75 19 2.0 12.0 0.00 0.00 0.00 44 1015.8
20190916180012 75 5 6.0 15.0 0.00 0.00 0.00 46 1015.9
20190916174506 74 224 3.0 11.0 0.00 0.00 0.00 46 1016.2
20190916173006 75 130 3.0 9.0 0.00 0.00 0.00 45 1016.2
20190916171621 74 27 1.0 8.0 0.00 0.00 0.00 46 1016.3
20190916170232 74 67 2.0 10.0 0.00 0.00 0.00 46 1016.4
20190916164707 74 355 1.0 10.0 0.00 0.00 0.00 47 1016.6
20190916163224 74 360 0.0 10.0 0.00 0.00 0.00 49 1016.7
20190916161725 74 192 1.0 8.0 0.00 0.00 0.00 48 1016.8
20190916160132 74 355 1.0 11.0 0.00 0.00 0.00 47 1016.9
20190916154714 74 5 1.0 11.0 0.00 0.00 0.00 48 1017.1
20190916153159 73 55 1.0 8.0 0.00 0.00 0.00 48 1017.3
20190916151632 73 286 2.0 8.0 0.00 0.00 0.00 48 1017.5
20190916150152 72 137 0.0 5.0 0.00 0.00 0.00 53 1017.6
20190916144657 70 360 1.0 8.0 0.00 0.00 0.00 54 1017.8
20190916143103 68 77 0.0 8.0 0.00 0.00 0.00 58 1018.0
20190916141613 64 360 1.0 8.0 0.00 0.00 0.00 64 1018.2
20190916140058 61 344 2.0 10.0 0.00 0.00 0.00 67 1018.4
20190916134601 60 355 0.0 8.0 0.00 0.00 0.00 69 1018.6
20190916133045 59 342 2.0 9.0 0.00 0.00 0.00 73 1018.6
20190916131547 59 61 0.0 3.0 0.00 0.00 0.00 75 1018.6
20190916130122 58 355 2.0 7.0 0.00 0.00 0.00 76 1018.6
20190916124618 58 50 0.0 1.0 0.00 0.00 0.00 82 1018.5
20190916123035 57 355 0.0 2.0 0.00 0.00 0.00 86 1018.5
20190916121529 56 16 0.0 1.0 0.00 0.00 0.00 90 1018.5
20190916120035 55 331 0.0 1.0 0.00 0.00 0.00 91 1018.5
20190916114529 55 331 0.0 0.0 0.00 0.00 0.00 91 1018.5
20190916113058 54 331 0.0 0.0 0.00 0.00 0.00 90 1018.4
20190916111531 54 331 0.0 0.0 0.00 0.00 0.00 88 1018.3
20190916110026 54 331 0.0 0.0 0.00 0.00 0.00 89 1018.1
20190916104551 54 331 0.0 0.0 0.00 0.00 0.00 89 1018.1
20190916103019 54 331 0.0 0.0 0.00 0.00 0.00 90 1018.0
20190916101520 55 360 0.0 0.0 0.00 0.00 0.00 92 1017.8
20190916100010 55 360 0.0 0.0 0.00 0.00 0.00 93 1017.5
20190916094507 55 360 0.0 0.0 0.00 0.00 0.00 93 1017.4
20190916093008 56 360 0.0 0.0 0.00 0.00 0.00 94 1017.5
20190916091508 56 360 0.0 0.0 0.00 0.00 0.00 94 1017.2
20190916090012 56 360 0.0 0.0 0.00 0.00 0.00 94 1017.2
20190916084844 56 360 0.0 0.0 0.00 0.00 0.00 93 1017.2
20190916083133 56 360 0.0 0.0 0.00 0.00 0.00 94 1017.0
20190916081729 56 360 0.0 0.0 0.00 0.00 0.00 94 1017.3
20190916080311 56 360 0.0 0.0 0.00 0.00 0.00 93 1017.2
20190916074714 56 360 0.0 0.0 0.00 0.00 0.00 93 1017.0
20190916073144 57 360 0.0 0.0 0.00 0.00 0.00 93 1016.8
20190916071654 57 360 0.0 0.0 0.00 0.00 0.00 93 1016.5
20190916070136 57 360 0.0 0.0 0.00 0.00 0.00 93 1016.4
20190916064629 57 360 0.0 0.0 0.00 0.00 0.00 93 1016.4
20190916063133 57 360 0.0 0.0 0.00 0.00 0.00 92 1016.5
20190916061605 58 360 0.0 0.0 0.00 0.00 0.00 92 1016.5
20190916060148 58 360 0.0 0.0 0.00 0.00 0.00 91 1016.5
20190916054552 58 360 0.0 0.0 0.00 0.00 0.00 90 1016.3
20190916053100 59 360 0.0 0.0 0.00 0.00 0.00 90 1016.7
20190916051630 59 360 0.0 0.0 0.00 0.00 0.00 89 1016.7
20190916050042 60 360 0.0 0.0 0.00 0.00 0.00 89 1016.7
20190916044602 60 360 0.0 0.0 0.00 0.00 0.00 88 1016.6
20190916043037 61 360 0.0 0.0 0.00 0.00 0.00 88 1016.7
20190916041629 61 360 0.0 0.0 0.00 0.00 0.00 87 1016.6
20190916040030 61 360 0.0 3.0 0.00 0.00 0.00 87 1016.6
20190916034538 61 123 0.0 0.0 0.00 0.00 0.00 86 1016.5
20190916033040 61 123 0.0 0.0 0.00 0.00 0.00 86 1016.5
20190916031530 62 123 0.0 0.0 0.00 0.00 0.00 86 1016.7
20190916030028 62 123 0.0 0.0 0.00 0.00 0.00 85 1016.5
20190916024524 62 123 0.0 0.0 0.00 0.00 0.00 84 1016.4
20190916023035 62 123 0.0 0.0 0.00 0.00 0.00 83 1016.4
20190916021531 62 123 0.0 0.0 0.00 0.00 0.00 82 1016.5
20190916020111 63 123 0.0 0.0 0.00 0.00 0.00 80 1016.3
20190916014528 64 123 0.0 0.0 0.00 0.00 0.00 78 1016.3
20190916013103 65 123 0.0 0.0 0.00 0.00 0.00 76 1016.3
20190916011535 66 123 0.0 0.0 0.00 0.00 0.00 75 1016.3
20190916010024 66 123 0.0 0.0 0.00 0.00 0.00 72 1016.3
20190916004522 67 123 0.0 0.0 0.00 0.00 0.00 73 1016.3
20190916003022 68 123 0.0 0.0 0.00 0.00 0.00 71 1016.4
20190916001558 69 171 0.0 0.0 0.00 0.00 0.00 73 1016.4
20190916000022 70 171 0.0 0.0 0.00 0.00 0.00 66 1016.6
20190915234554 70 171 0.0 0.0 0.00 0.00 0.00 66 1016.3
20190915233103 71 171 0.0 0.0 0.00 0.00 0.00 64 1015.7
20190915231512 72 191 0.0 1.0 0.00 0.00 0.00 60 1016.4
20190915230023 72 173 0.0 0.0 0.00 0.00 0.00 60 1016.3
20190915224512 73 174 0.0 2.0 0.00 0.00 0.00 57 1016.5
20190915223017 73 188 0.0 1.0 0.00 0.00 0.00 57 1016.8
20190915221528 74 202 1.0 6.0 0.00 0.00 0.00 56 1016.4
20190915220019 75 210 0.0 0.0 0.00 0.00 0.00 55 1016.7
20190915214522 75 180 0.0 4.0 0.00 0.00 0.00 53 1016.4
20190915213008 76 261 1.0 5.0 0.00 0.00 0.00 51 1016.2
20190915211506 77 187 1.0 5.0 0.00 0.00 0.00 48 1016.1
20190915210006 78 194 2.0 6.0 0.00 0.00 0.00 47 1016.1
20190915204506 79 173 1.0 6.0 0.00 0.00 0.00 46 1016.1
20190915203008 81 98 1.0 8.0 0.00 0.00 0.00 45 1016.0